Time;durP1;ratioP1;P1;durP2;ratioP2;P2;SDS_P1;SDS_P2;PMS_P1;PMS_P2;Temp;Humidity;BMP_temperature;BMP_pressure;BME280_temperature;BME280_humidity;BME280_pressure;Samples;Min_cycle;Max_cycle;Signal;HPM_P1;HPM_P2
2023/12/22 00:01:27;;;;;;;;;;;2.90;99.90;;;;;;5054557;28;19952;-77
2023/12/22 00:03:53;;;;;;;;;;;2.80;99.90;;;;;;5065769;28;19929;-77
2023/12/22 00:06:19;;;;;;;;;;;2.80;99.90;;;;;;5066510;28;19920;-76
2023/12/22 00:08:44;;;;;;;;;;;2.80;99.90;;;;;;5061858;28;20507;-76
2023/12/22 00:11:10;;;;;;;;;;;2.80;99.90;;;;;;5067471;28;19916;-76
2023/12/22 00:13:35;;;;;;;;;;;2.80;99.90;;;;;;5065665;28;19956;-77
2023/12/22 00:16:01;;;;;;;;;;;2.80;99.90;;;;;;5068050;28;19919;-76
2023/12/22 00:18:27;;;;;;;;;;;2.80;99.90;;;;;;5051399;28;19919;-76
2023/12/22 00:20:53;;;;;;;;;;;2.80;99.90;;;;;;5067893;28;20648;-76
2023/12/22 00:23:18;;;;;;;;;;;2.80;99.90;;;;;;5066810;28;20027;-76
2023/12/22 00:25:44;;;;;;;;;;;2.80;99.90;;;;;;5065295;28;19916;-77
2023/12/22 00:28:10;;;;;;;;;;;2.80;99.90;;;;;;5069407;28;19917;-76
2023/12/22 00:30:35;;;;;;;;;;;2.80;99.90;;;;;;5066545;28;20322;-76
2023/12/22 00:33:01;;;;;;;;;;;2.80;99.90;;;;;;5069517;28;19960;-77
2023/12/22 00:35:26;;;;;;;;;;;2.70;99.90;;;;;;5050727;28;19936;-77
2023/12/22 00:37:53;;;;;;;;;;;2.70;99.90;;;;;;5068661;28;19921;-77
2023/12/22 00:40:18;;;;;;;;;;;2.70;99.90;;;;;;5064134;28;20356;-76
2023/12/22 00:42:44;;;;;;;;;;;2.70;99.90;;;;;;5065811;28;19995;-77
2023/12/22 00:45:10;;;;;;;;;;;2.70;99.90;;;;;;5067131;28;20006;-77
2023/12/22 00:47:36;;;;;;;;;;;2.70;99.90;;;;;;5062195;28;19956;-77
2023/12/22 00:50:02;;;;;;;;;;;2.70;99.90;;;;;;5064619;28;19963;-76
2023/12/22 00:52:28;;;;;;;;;;;2.70;99.90;;;;;;5064987;28;19908;-76
2023/12/22 00:54:53;;;;;;;;;;;2.70;99.90;;;;;;5063466;28;20422;-77
2023/12/22 00:57:19;;;;;;;;;;;2.60;99.90;;;;;;5062122;28;20359;-77
2023/12/22 00:59:47;;;;;;;;;;;2.60;99.90;;;;;;5068168;28;19956;-77
2023/12/22 01:02:14;;;;;;;;;;;2.60;99.90;;;;;;5070913;28;19948;-76
2023/12/22 01:04:39;;;;;;;;;;;2.50;99.90;;;;;;5065567;28;19927;-76
2023/12/22 01:07:07;;;;;;;;;;;2.50;99.90;;;;;;5065934;28;19916;-77
2023/12/22 01:09:32;;;;;;;;;;;2.50;99.90;;;;;;5066123;28;19988;-76
2023/12/22 01:11:59;;;;;;;;;;;2.50;99.90;;;;;;5065636;28;20364;-77
2023/12/22 01:14:24;;;;;;;;;;;2.50;99.90;;;;;;5052086;28;19963;-77
2023/12/22 01:16:50;;;;;;;;;;;2.40;99.90;;;;;;5064909;28;19944;-77
2023/12/22 01:19:16;;;;;;;;;;;2.40;99.90;;;;;;5069920;28;19943;-77
2023/12/22 01:21:41;;;;;;;;;;;2.40;99.90;;;;;;5065349;28;20021;-78
2023/12/22 01:24:07;;;;;;;;;;;2.40;99.90;;;;;;5066215;28;19916;-77
2023/12/22 01:26:33;;;;;;;;;;;2.40;99.90;;;;;;5065162;28;19917;-77
2023/12/22 01:28:59;;;;;;;;;;;2.40;99.90;;;;;;5060791;28;19921;-77
2023/12/22 01:31:24;;;;;;;;;;;2.40;99.90;;;;;;5064605;28;19981;-77
2023/12/22 01:33:50;;;;;;;;;;;2.40;99.90;;;;;;5062895;28;19921;-77
2023/12/22 01:36:15;;;;;;;;;;;2.40;99.90;;;;;;5067396;28;19920;-77
2023/12/22 01:38:41;;;;;;;;;;;2.40;99.90;;;;;;5065504;28;19923;-77
2023/12/22 01:41:08;;;;;;;;;;;2.40;99.90;;;;;;5066550;28;20497;-77
2023/12/22 01:43:34;;;;;;;;;;;2.40;99.90;;;;;;5065962;28;19975;-76
2023/12/22 01:46:00;;;;;;;;;;;2.40;99.90;;;;;;5064010;28;20391;-76
2023/12/22 01:48:27;;;;;;;;;;;2.40;99.90;;;;;;5067350;28;20003;-76
2023/12/22 01:51:12;;;;;;;;;;;2.50;99.90;;;;;;5063056;28;19923;-77
2023/12/22 01:53:37;;;;;;;;;;;2.50;99.90;;;;;;5065929;28;19916;-76
2023/12/22 01:56:04;;;;;;;;;;;2.50;99.90;;;;;;5065889;28;19935;-75
2023/12/22 01:58:30;;;;;;;;;;;2.60;99.90;;;;;;5064857;28;19932;-76
2023/12/22 02:01:02;;;;;;;;;;;2.70;99.90;;;;;;5046297;28;20376;-76
2023/12/22 02:03:30;;;;;;;;;;;2.70;99.90;;;;;;5063175;28;19917;-77
2023/12/22 02:05:56;;;;;;;;;;;2.70;99.90;;;;;;5062881;28;19916;-77
2023/12/22 02:08:22;;;;;;;;;;;2.70;99.90;;;;;;5065982;28;19963;-77
2023/12/22 02:10:48;;;;;;;;;;;2.80;99.90;;;;;;5060901;28;20067;-77
2023/12/22 02:13:14;;;;;;;;;;;2.80;99.90;;;;;;5066203;28;20451;-76
2023/12/22 02:15:39;;;;;;;;;;;2.80;99.90;;;;;;5062131;28;20288;-77
2023/12/22 02:18:08;;;;;;;;;;;2.90;99.90;;;;;;5066102;28;19917;-77
2023/12/22 02:20:33;;;;;;;;;;;2.90;99.90;;;;;;5059982;28;19916;-77
2023/12/22 02:22:59;;;;;;;;;;;3.00;99.90;;;;;;5060333;28;19963;-76
2023/12/22 02:25:25;;;;;;;;;;;3.00;99.90;;;;;;5063788;28;19974;-76
2023/12/22 02:27:53;;;;;;;;;;;3.00;99.90;;;;;;5030710;28;19920;-77
2023/12/22 02:30:21;;;;;;;;;;;3.00;99.90;;;;;;5063067;28;20405;-77
2023/12/22 02:32:49;;;;;;;;;;;3.00;99.90;;;;;;5042870;28;19963;-76
2023/12/22 02:35:16;;;;;;;;;;;3.00;99.90;;;;;;5063633;28;19912;-77
2023/12/22 02:37:41;;;;;;;;;;;3.10;99.90;;;;;;5066179;28;20004;-77
2023/12/22 02:40:09;;;;;;;;;;;3.00;99.90;;;;;;5065218;28;20051;-76
2023/12/22 02:42:35;;;;;;;;;;;3.00;99.90;;;;;;5044860;28;19921;-77
2023/12/22 02:45:01;;;;;;;;;;;3.00;99.90;;;;;;5064604;28;19912;-77
2023/12/22 02:47:29;;;;;;;;;;;3.00;99.90;;;;;;5065385;28;20723;-77
2023/12/22 02:49:55;;;;;;;;;;;3.10;99.90;;;;;;5065498;28;20062;-77
2023/12/22 02:52:20;;;;;;;;;;;3.10;99.90;;;;;;5064619;28;19946;-77
2023/12/22 02:54:47;;;;;;;;;;;3.00;99.90;;;;;;5064084;28;19923;-76
2023/12/22 02:57:13;;;;;;;;;;;3.00;99.90;;;;;;5070660;28;19921;-77
2023/12/22 02:59:38;;;;;;;;;;;2.90;99.90;;;;;;5065936;28;19912;-77
2023/12/22 03:02:04;;;;;;;;;;;3.00;99.90;;;;;;5059011;28;20006;-77
2023/12/22 03:04:30;;;;;;;;;;;2.90;99.90;;;;;;5063051;28;20448;-77
2023/12/22 03:06:56;;;;;;;;;;;2.90;99.90;;;;;;5068251;28;19912;-77
2023/12/22 03:09:21;;;;;;;;;;;2.90;99.90;;;;;;5069630;28;19974;-77
2023/12/22 03:11:47;;;;;;;;;;;2.90;99.90;;;;;;5063495;28;19921;-77
2023/12/22 03:14:13;;;;;;;;;;;2.90;99.90;;;;;;5072142;28;20021;-77
2023/12/22 03:16:39;;;;;;;;;;;2.90;99.90;;;;;;5068977;28;20687;-77
2023/12/22 03:19:04;;;;;;;;;;;3.00;99.90;;;;;;5070449;28;19912;-77
2023/12/22 03:21:30;;;;;;;;;;;3.00;99.90;;;;;;5065713;28;20288;-77
2023/12/22 03:23:56;;;;;;;;;;;2.90;99.90;;;;;;5063449;28;19916;-76
2023/12/22 03:26:21;;;;;;;;;;;3.00;99.90;;;;;;5071043;28;20368;-77
2023/12/22 03:28:47;;;;;;;;;;;2.90;99.90;;;;;;5068487;28;19946;-78
2023/12/22 03:31:13;;;;;;;;;;;2.90;99.90;;;;;;5067383;28;19943;-77
2023/12/22 03:33:38;;;;;;;;;;;2.90;99.90;;;;;;5060813;28;20011;-78
2023/12/22 03:36:04;;;;;;;;;;;2.90;99.90;;;;;;5052848;28;19916;-77
2023/12/22 03:38:30;;;;;;;;;;;2.90;99.90;;;;;;5066808;28;20390;-77
2023/12/22 03:40:55;;;;;;;;;;;2.90;99.90;;;;;;5067002;28;19986;-77
2023/12/22 03:43:21;;;;;;;;;;;2.80;99.90;;;;;;5064988;28;20426;-77
2023/12/22 03:45:46;;;;;;;;;;;2.80;99.90;;;;;;5065514;28;19916;-77
2023/12/22 03:48:12;;;;;;;;;;;2.80;99.90;;;;;;5038143;28;19917;-76
2023/12/22 03:50:38;;;;;;;;;;;2.80;99.90;;;;;;5067910;28;20335;-77
2023/12/22 03:53:03;;;;;;;;;;;2.70;99.90;;;;;;5065255;28;19951;-77
2023/12/22 03:55:29;;;;;;;;;;;2.70;99.90;;;;;;5068711;28;19924;-77
2023/12/22 03:57:54;;;;;;;;;;;2.70;99.90;;;;;;5034993;28;19931;-77
2023/12/22 04:00:20;;;;;;;;;;;2.70;99.90;;;;;;5068565;28;19931;-77
2023/12/22 04:02:45;;;;;;;;;;;2.70;99.90;;;;;;5064119;28;20372;-77
2023/12/22 04:05:11;;;;;;;;;;;2.70;99.90;;;;;;5067302;28;19920;-76
2023/12/22 04:07:37;;;;;;;;;;;2.70;99.90;;;;;;5049488;28;19916;-77
2023/12/22 04:10:03;;;;;;;;;;;2.70;99.90;;;;;;5041188;28;19921;-77
2023/12/22 04:12:28;;;;;;;;;;;2.70;99.90;;;;;;5069810;28;19924;-78
2023/12/22 04:14:54;;;;;;;;;;;2.60;99.90;;;;;;5067707;28;19920;-77
2023/12/22 04:17:20;;;;;;;;;;;2.60;99.90;;;;;;5067538;28;19986;-77
2023/12/22 04:19:45;;;;;;;;;;;2.60;99.90;;;;;;5069937;28;19916;-78
2023/12/22 04:22:11;;;;;;;;;;;2.60;99.90;;;;;;5067300;28;19921;-77
2023/12/22 04:24:37;;;;;;;;;;;2.60;99.90;;;;;;5068231;28;19965;-77
2023/12/22 04:27:02;;;;;;;;;;;2.60;99.90;;;;;;5065811;28;19917;-78
2023/12/22 04:29:28;;;;;;;;;;;2.60;99.90;;;;;;5063434;28;19917;-78
2023/12/22 04:31:53;;;;;;;;;;;2.50;99.90;;;;;;5067140;28;19974;-77
2023/12/22 04:34:19;;;;;;;;;;;2.50;99.90;;;;;;5069902;28;19967;-78
2023/12/22 04:36:46;;;;;;;;;;;2.50;99.90;;;;;;5065164;28;20338;-77
2023/12/22 04:39:12;;;;;;;;;;;2.50;99.90;;;;;;5059125;28;19913;-78
2023/12/22 04:41:38;;;;;;;;;;;2.50;99.90;;;;;;5063747;28;19920;-78
2023/12/22 04:44:04;;;;;;;;;;;2.50;99.90;;;;;;5069443;28;20019;-78
2023/12/22 04:46:30;;;;;;;;;;;2.60;99.90;;;;;;5068255;28;19959;-78
2023/12/22 04:48:56;;;;;;;;;;;2.50;99.90;;;;;;5067736;28;19932;-78
2023/12/22 04:51:22;;;;;;;;;;;2.50;99.90;;;;;;5069521;28;19999;-78
2023/12/22 04:53:47;;;;;;;;;;;2.50;99.90;;;;;;5049911;28;20015;-78
2023/12/22 04:56:13;;;;;;;;;;;2.50;99.90;;;;;;5069351;28;20441;-78
2023/12/22 04:58:38;;;;;;;;;;;2.50;99.90;;;;;;5045960;28;20008;-78
2023/12/22 05:01:04;;;;;;;;;;;2.50;99.90;;;;;;5064230;28;19924;-78
2023/12/22 05:03:30;;;;;;;;;;;2.50;99.90;;;;;;5065253;28;20399;-78
2023/12/22 05:05:55;;;;;;;;;;;2.50;99.90;;;;;;5068004;28;21357;-78
2023/12/22 05:08:21;;;;;;;;;;;2.50;99.90;;;;;;5050623;28;19913;-78
2023/12/22 05:10:46;;;;;;;;;;;2.50;99.90;;;;;;5047310;28;19916;-77
2023/12/22 05:13:12;;;;;;;;;;;2.60;99.90;;;;;;5063975;28;20077;-78
2023/12/22 05:15:38;;;;;;;;;;;2.60;99.90;;;;;;5066467;28;20341;-78
2023/12/22 05:18:04;;;;;;;;;;;2.60;99.90;;;;;;5067057;28;19978;-78
2023/12/22 05:20:29;;;;;;;;;;;2.60;99.90;;;;;;5063500;28;20000;-78
2023/12/22 05:22:55;;;;;;;;;;;2.60;99.90;;;;;;5069047;28;20286;-78
2023/12/22 05:25:21;;;;;;;;;;;2.60;99.90;;;;;;5068184;28;19912;-78
2023/12/22 05:27:46;;;;;;;;;;;2.60;99.90;;;;;;5066148;28;19923;-78
2023/12/22 05:30:12;;;;;;;;;;;2.60;99.90;;;;;;5068187;28;20011;-78
2023/12/22 05:32:38;;;;;;;;;;;2.60;99.90;;;;;;5064123;28;19916;-78
2023/12/22 05:35:04;;;;;;;;;;;2.60;99.90;;;;;;5060130;28;20003;-77
2023/12/22 05:37:29;;;;;;;;;;;2.50;99.90;;;;;;5062327;28;19925;-78
2023/12/22 05:39:55;;;;;;;;;;;2.50;99.90;;;;;;5063391;28;19989;-78
2023/12/22 05:42:21;;;;;;;;;;;2.50;99.90;;;;;;5064979;28;19920;-77
2023/12/22 05:44:49;;;;;;;;;;;2.50;99.90;;;;;;5068578;28;20409;-78
2023/12/22 05:47:17;;;;;;;;;;;2.50;99.90;;;;;;5059817;28;19920;-78
2023/12/22 05:49:43;;;;;;;;;;;2.50;99.90;;;;;;5065832;28;19928;-77
2023/12/22 05:52:12;;;;;;;;;;;2.40;99.90;;;;;;5050156;28;20059;-78
2023/12/22 05:54:38;;;;;;;;;;;2.40;99.90;;;;;;5066255;28;19912;-78
2023/12/22 05:57:05;;;;;;;;;;;2.40;99.90;;;;;;5060899;28;19962;-78
2023/12/22 05:59:32;;;;;;;;;;;2.40;99.90;;;;;;5067675;28;20395;-78
2023/12/22 06:01:58;;;;;;;;;;;2.30;99.90;;;;;;5062941;28;20007;-77
2023/12/22 06:04:24;;;;;;;;;;;2.30;99.90;;;;;;5064946;28;19924;-77
2023/12/22 06:06:50;;;;;;;;;;;2.30;99.90;;;;;;5065884;28;19920;-77
2023/12/22 06:09:17;;;;;;;;;;;2.30;99.90;;;;;;5067430;28;19927;-78
2023/12/22 06:11:42;;;;;;;;;;;2.30;99.90;;;;;;5063260;28;20383;-78
2023/12/22 06:14:08;;;;;;;;;;;2.30;99.90;;;;;;5063608;28;20062;-77
2023/12/22 06:16:34;;;;;;;;;;;2.30;99.90;;;;;;5048487;28;20292;-78
2023/12/22 06:18:59;;;;;;;;;;;2.20;99.90;;;;;;5065963;28;19916;-78
2023/12/22 06:21:25;;;;;;;;;;;2.20;99.90;;;;;;5069284;28;19924;-78
2023/12/22 06:23:51;;;;;;;;;;;2.30;99.90;;;;;;5067213;28;20034;-78
2023/12/22 06:26:16;;;;;;;;;;;2.30;99.90;;;;;;5061746;28;19921;-78
2023/12/22 06:28:42;;;;;;;;;;;2.30;99.90;;;;;;5063002;28;20448;-78
2023/12/22 06:31:08;;;;;;;;;;;2.30;99.90;;;;;;5062824;28;20296;-77
2023/12/22 06:33:34;;;;;;;;;;;2.40;99.90;;;;;;5066116;28;19935;-78
2023/12/22 06:36:00;;;;;;;;;;;2.40;99.90;;;;;;5063766;28;20003;-78
2023/12/22 06:38:25;;;;;;;;;;;2.40;99.90;;;;;;5067910;28;19974;-78
2023/12/22 06:40:51;;;;;;;;;;;2.40;99.90;;;;;;5061790;28;20294;-79
2023/12/22 06:43:17;;;;;;;;;;;2.40;99.90;;;;;;5061864;28;19921;-78
2023/12/22 06:45:42;;;;;;;;;;;2.40;99.90;;;;;;5059809;28;19962;-79
2023/12/22 06:48:11;;;;;;;;;;;2.40;99.90;;;;;;5064044;28;19916;-78
2023/12/22 06:50:39;;;;;;;;;;;2.40;99.90;;;;;;5064996;28;19955;-78
2023/12/22 06:53:04;;;;;;;;;;;2.40;99.90;;;;;;5064241;28;19956;-78
2023/12/22 06:55:30;;;;;;;;;;;2.40;99.90;;;;;;5063149;28;19952;-79
2023/12/22 06:57:55;;;;;;;;;;;2.50;99.90;;;;;;5066509;28;19968;-78
2023/12/22 07:00:21;;;;;;;;;;;2.40;99.90;;;;;;5060309;28;19924;-78
2023/12/22 07:02:47;;;;;;;;;;;2.40;99.90;;;;;;5060687;28;20375;-79
2023/12/22 07:05:21;;;;;;;;;;;2.40;99.90;;;;;;5068340;28;19967;-79
2023/12/22 07:07:47;;;;;;;;;;;2.40;99.90;;;;;;5062241;28;19916;-79
2023/12/22 07:10:12;;;;;;;;;;;2.40;99.90;;;;;;5066167;28;19927;-78
2023/12/22 07:12:39;;;;;;;;;;;2.40;99.90;;;;;;5067704;28;19940;-78
2023/12/22 07:15:06;;;;;;;;;;;2.40;99.90;;;;;;5060100;28;20530;-78
2023/12/22 07:17:32;;;;;;;;;;;2.40;99.90;;;;;;5061502;28;19924;-78
2023/12/22 07:19:58;;;;;;;;;;;2.40;99.90;;;;;;5068592;28;19917;-79
2023/12/22 07:22:23;;;;;;;;;;;2.40;99.90;;;;;;5067043;28;20380;-78
2023/12/22 07:24:51;;;;;;;;;;;2.40;99.90;;;;;;5068987;28;19924;-79
2023/12/22 07:27:18;;;;;;;;;;;2.40;99.90;;;;;;5065138;28;19921;-78
2023/12/22 07:29:44;;;;;;;;;;;2.40;99.90;;;;;;5063287;28;19920;-79
2023/12/22 07:32:10;;;;;;;;;;;2.40;99.90;;;;;;5061245;28;19920;-78
2023/12/22 07:34:35;;;;;;;;;;;2.40;99.90;;;;;;5065673;28;19923;-78
2023/12/22 07:37:01;;;;;;;;;;;2.40;99.90;;;;;;5065246;28;20448;-78
2023/12/22 07:39:26;;;;;;;;;;;2.40;99.90;;;;;;5067735;28;19913;-77
2023/12/22 07:41:52;;;;;;;;;;;2.40;99.90;;;;;;5066592;28;19921;-77
2023/12/22 07:44:18;;;;;;;;;;;2.40;99.90;;;;;;5066049;28;19924;-78
2023/12/22 07:46:43;;;;;;;;;;;2.40;99.90;;;;;;5059980;28;19932;-79
2023/12/22 07:49:09;;;;;;;;;;;2.40;99.90;;;;;;5069345;28;19924;-79
2023/12/22 07:51:38;;;;;;;;;;;2.40;99.90;;;;;;5064225;28;19976;-80
2023/12/22 07:54:03;;;;;;;;;;;2.40;99.90;;;;;;5074517;28;19927;-78
2023/12/22 07:56:29;;;;;;;;;;;2.40;99.90;;;;;;5071694;28;19920;-78
2023/12/22 07:58:55;;;;;;;;;;;2.40;99.90;;;;;;5049543;28;19998;-78
2023/12/22 08:01:20;;;;;;;;;;;2.40;99.90;;;;;;5070514;28;19923;-78
2023/12/22 08:03:46;;;;;;;;;;;2.40;99.90;;;;;;5070774;28;19917;-79
2023/12/22 08:06:14;;;;;;;;;;;2.40;99.90;;;;;;5067156;28;19978;-78
2023/12/22 08:08:39;;;;;;;;;;;2.40;99.90;;;;;;5067957;28;20019;-78
2023/12/22 08:11:05;;;;;;;;;;;2.40;99.90;;;;;;5068203;28;20011;-78
2023/12/22 08:13:30;;;;;;;;;;;2.40;99.90;;;;;;5067858;28;19928;-78
2023/12/22 08:15:56;;;;;;;;;;;2.50;99.90;;;;;;5067522;28;20356;-78
2023/12/22 08:18:21;;;;;;;;;;;2.50;99.90;;;;;;5069622;28;20341;-80
2023/12/22 08:20:49;;;;;;;;;;;2.50;99.90;;;;;;5070229;28;19935;-80
2023/12/22 08:23:15;;;;;;;;;;;2.50;99.90;;;;;;5067665;28;19917;-80
2023/12/22 08:25:43;;;;;;;;;;;2.50;99.90;;;;;;5069647;28;20427;-80
2023/12/22 08:28:09;;;;;;;;;;;2.40;99.90;;;;;;5068727;28;20323;-80
2023/12/22 08:30:35;;;;;;;;;;;2.50;99.90;;;;;;5068670;28;20355;-80
2023/12/22 08:33:01;;;;;;;;;;;2.50;99.90;;;;;;5070622;28;19916;-80
2023/12/22 08:35:27;;;;;;;;;;;2.50;99.90;;;;;;5067020;28;19952;-80
2023/12/22 08:37:52;;;;;;;;;;;2.50;99.90;;;;;;5070283;28;20007;-79
2023/12/22 08:40:25;;;;;;;;;;;2.60;99.90;;;;;;5071139;28;20006;-80
2023/12/22 08:42:54;;;;;;;;;;;2.60;99.90;;;;;;5069779;28;20375;-80
2023/12/22 08:45:20;;;;;;;;;;;2.70;99.90;;;;;;5070511;28;19916;-79
2023/12/22 08:47:45;;;;;;;;;;;2.70;99.90;;;;;;5071115;28;19916;-80
2023/12/22 08:50:12;;;;;;;;;;;2.80;99.90;;;;;;5061086;28;20015;-80
2023/12/22 08:52:38;;;;;;;;;;;2.80;99.90;;;;;;5066952;28;20404;-80
2023/12/22 08:55:05;;;;;;;;;;;2.80;99.90;;;;;;5067003;28;19944;-80
2023/12/22 08:57:31;;;;;;;;;;;2.90;99.90;;;;;;5052448;28;20259;-80
2023/12/22 08:59:57;;;;;;;;;;;2.90;99.90;;;;;;5066624;28;19912;-80
2023/12/22 09:02:22;;;;;;;;;;;2.90;99.90;;;;;;5071525;28;20292;-79
2023/12/22 09:04:48;;;;;;;;;;;3.00;99.90;;;;;;5069747;28;19924;-80
2023/12/22 09:07:14;;;;;;;;;;;3.00;99.90;;;;;;5072025;28;19955;-80
2023/12/22 09:09:58;;;;;;;;;;;3.00;99.90;;;;;;5048604;28;19923;-80
2023/12/22 09:12:23;;;;;;;;;;;3.00;99.90;;;;;;5067000;28;20199;-80
2023/12/22 09:14:49;;;;;;;;;;;3.10;99.90;;;;;;5068365;28;20019;-79
2023/12/22 09:17:16;;;;;;;;;;;3.10;99.90;;;;;;5062900;28;20050;-78
2023/12/22 09:19:42;;;;;;;;;;;3.10;99.90;;;;;;5070015;28;19995;-79
2023/12/22 09:22:08;;;;;;;;;;;3.10;99.90;;;;;;5068400;28;19947;-79
2023/12/22 09:24:34;;;;;;;;;;;3.10;99.90;;;;;;5070141;28;20449;-78
2023/12/22 09:27:02;;;;;;;;;;;3.10;99.90;;;;;;5063420;28;19913;-79
2023/12/22 09:29:35;;;;;;;;;;;3.10;99.90;;;;;;5066369;28;19931;-79
2023/12/22 09:32:01;;;;;;;;;;;3.20;99.90;;;;;;5067686;28;19912;-78
2023/12/22 09:34:27;;;;;;;;;;;3.20;99.90;;;;;;5068503;28;19928;-78
2023/12/22 09:36:54;;;;;;;;;;;3.20;99.90;;;;;;5069756;28;19924;-78
2023/12/22 09:39:19;;;;;;;;;;;3.30;99.90;;;;;;5070120;28;19995;-77
2023/12/22 09:41:47;;;;;;;;;;;3.30;99.90;;;;;;5065124;28;19956;-79
2023/12/22 09:44:14;;;;;;;;;;;3.30;99.90;;;;;;5070050;28;19919;-79
2023/12/22 09:46:40;;;;;;;;;;;3.40;99.90;;;;;;5070342;28;20018;-79
2023/12/22 09:49:06;;;;;;;;;;;3.40;99.90;;;;;;5061108;28;19982;-79
2023/12/22 09:51:32;;;;;;;;;;;3.50;99.90;;;;;;5063536;28;19923;-78
2023/12/22 09:53:58;;;;;;;;;;;3.50;99.90;;;;;;5058899;28;19932;-78
2023/12/22 09:56:24;;;;;;;;;;;3.50;99.90;;;;;;5069345;28;19921;-78
2023/12/22 09:58:51;;;;;;;;;;;3.50;99.90;;;;;;5070819;28;19954;-78
2023/12/22 10:01:21;;;;;;;;;;;3.50;99.90;;;;;;5069215;28;19913;-79
2023/12/22 10:03:47;;;;;;;;;;;3.50;99.90;;;;;;5068369;28;19912;-78
2023/12/22 10:06:12;;;;;;;;;;;3.60;99.90;;;;;;5068492;28;19921;-79
2023/12/22 10:08:39;;;;;;;;;;;3.50;99.90;;;;;;5072228;28;20273;-79
2023/12/22 10:11:04;;;;;;;;;;;3.60;99.90;;;;;;5065859;28;19921;-78
2023/12/22 10:13:31;;;;;;;;;;;3.60;99.90;;;;;;5068126;28;20372;-78
2023/12/22 10:15:58;;;;;;;;;;;3.60;99.90;;;;;;5069659;28;19928;-79
2023/12/22 10:18:24;;;;;;;;;;;3.60;99.90;;;;;;5071733;28;20368;-79
2023/12/22 10:20:50;;;;;;;;;;;3.70;99.90;;;;;;5066672;28;19971;-79
2023/12/22 10:23:15;;;;;;;;;;;3.70;99.90;;;;;;5073705;28;19917;-79
2023/12/22 10:25:41;;;;;;;;;;;3.70;99.90;;;;;;5069644;28;20298;-78
2023/12/22 10:28:09;;;;;;;;;;;3.70;99.90;;;;;;5070970;28;19920;-78
2023/12/22 10:30:36;;;;;;;;;;;3.80;99.90;;;;;;5072758;28;20340;-79
2023/12/22 10:33:03;;;;;;;;;;;3.80;99.90;;;;;;5073363;28;19940;-78
2023/12/22 10:35:29;;;;;;;;;;;3.80;99.90;;;;;;5069463;28;19940;-79
2023/12/22 10:37:55;;;;;;;;;;;3.80;99.90;;;;;;5073080;28;20287;-78
2023/12/22 10:40:22;;;;;;;;;;;3.90;99.90;;;;;;5073166;28;19916;-78
2023/12/22 10:42:51;;;;;;;;;;;3.90;99.90;;;;;;5069860;28;19962;-79
2023/12/22 10:45:18;;;;;;;;;;;3.90;99.90;;;;;;5069831;28;19958;-79
2023/12/22 10:47:43;;;;;;;;;;;3.90;99.90;;;;;;5065777;28;19923;-79
2023/12/22 10:50:11;;;;;;;;;;;3.90;99.90;;;;;;5072644;28;20435;-78
2023/12/22 10:52:37;;;;;;;;;;;3.90;99.90;;;;;;5066292;28;19912;-79
2023/12/22 10:55:03;;;;;;;;;;;3.90;99.90;;;;;;5052795;28;19913;-79
2023/12/22 10:57:29;;;;;;;;;;;3.90;99.90;;;;;;5055346;28;20367;-80
2023/12/22 10:59:56;;;;;;;;;;;3.90;99.90;;;;;;5070239;28;20423;-80
2023/12/22 11:02:22;;;;;;;;;;;3.90;99.90;;;;;;5069273;28;20420;-79
2023/12/22 11:04:56;;;;;;;;;;;3.80;99.90;;;;;;5075051;28;19916;-80
2023/12/22 11:07:24;;;;;;;;;;;3.90;99.90;;;;;;5070149;28;20582;-81
2023/12/22 11:09:51;;;;;;;;;;;3.80;99.90;;;;;;5038593;28;20002;-79
2023/12/22 11:12:17;;;;;;;;;;;3.80;99.90;;;;;;5065507;28;19967;-78
2023/12/22 11:14:53;;;;;;;;;;;3.80;99.90;;;;;;5048891;28;19912;-81
2023/12/22 11:17:21;;;;;;;;;;;3.80;99.90;;;;;;5054240;28;19920;-80
2023/12/22 11:19:59;;;;;;;;;;;3.80;99.90;;;;;;5011394;28;19912;-81
2023/12/22 11:22:39;;;;;;;;;;;3.80;99.90;;;;;;5056930;28;20551;-82
2023/12/22 11:25:12;;;;;;;;;;;3.80;99.90;;;;;;5058216;28;19958;-79
2023/12/22 11:27:42;;;;;;;;;;;3.80;99.90;;;;;;5057294;28;19913;-78
2023/12/22 11:30:09;;;;;;;;;;;3.70;99.90;;;;;;5077052;28;20347;-79
2023/12/22 11:32:35;;;;;;;;;;;3.70;99.90;;;;;;5076078;28;20357;-80
2023/12/22 11:35:01;;;;;;;;;;;3.70;99.90;;;;;;5073563;28;19923;-80
2023/12/22 11:37:30;;;;;;;;;;;3.70;99.90;;;;;;5072593;28;20081;-78
2023/12/22 11:39:58;;;;;;;;;;;3.70;99.90;;;;;;5048061;28;19974;-79
2023/12/22 11:42:26;;;;;;;;;;;3.70;99.90;;;;;;5055224;28;20356;-78
2023/12/22 11:48:21;;;;;;;;;;;3.60;99.90;;;;;;5067799;28;20016;-80
2023/12/22 11:55:02;;;;;;;;;;;3.60;99.90;;;;;;5068349;28;20399;-80
2023/12/22 11:58:30;;;;;;;;;;;3.60;99.90;;;;;;4919404;28;19966;-79
2023/12/22 12:00:56;;;;;;;;;;;3.70;99.90;;;;;;4971840;28;20005;-79
2023/12/22 12:03:22;;;;;;;;;;;3.70;99.90;;;;;;5064275;28;20031;-78
2023/12/22 12:05:49;;;;;;;;;;;3.80;99.90;;;;;;5063639;28;20029;-79
2023/12/22 12:08:14;;;;;;;;;;;3.80;99.90;;;;;;5055945;28;19924;-79
2023/12/22 12:11:03;;;;;;;;;;;3.90;99.90;;;;;;5067441;28;20406;-79
2023/12/22 12:13:30;;;;;;;;;;;3.90;99.90;;;;;;5067993;28;19913;-80
2023/12/22 12:15:59;;;;;;;;;;;3.90;99.90;;;;;;5070443;28;20287;-78
2023/12/22 12:18:26;;;;;;;;;;;3.90;99.90;;;;;;5060965;28;19921;-79
2023/12/22 12:20:52;;;;;;;;;;;3.90;99.90;;;;;;5069776;28;19917;-78
2023/12/22 12:23:18;;;;;;;;;;;3.90;99.90;;;;;;5069821;28;19916;-78
2023/12/22 12:25:44;;;;;;;;;;;4.00;99.90;;;;;;5067547;28;19916;-78
2023/12/22 12:28:10;;;;;;;;;;;4.00;99.90;;;;;;5065747;28;19928;-78
2023/12/22 12:30:36;;;;;;;;;;;4.00;99.90;;;;;;5049427;28;19920;-77
2023/12/22 12:33:06;;;;;;;;;;;4.00;99.90;;;;;;5070291;28;19913;-78
2023/12/22 12:35:32;;;;;;;;;;;4.10;99.90;;;;;;5069117;28;19966;-79
2023/12/22 12:37:59;;;;;;;;;;;4.00;99.90;;;;;;5067735;28;19977;-78
2023/12/22 12:40:24;;;;;;;;;;;3.90;99.90;;;;;;5069089;28;20668;-81
2023/12/22 12:42:50;;;;;;;;;;;3.50;99.90;;;;;;5070084;28;19932;-82
2023/12/22 12:45:22;;;;;;;;;;;3.20;99.90;;;;;;5056189;28;20482;-80
2023/12/22 12:48:01;;;;;;;;;;;3.00;99.90;;;;;;5070149;28;19939;-78
2023/12/22 12:50:28;;;;;;;;;;;2.80;99.90;;;;;;5068602;28;19917;-79
2023/12/22 12:52:54;;;;;;;;;;;2.60;99.90;;;;;;5066579;28;20455;-79
2023/12/22 12:55:20;;;;;;;;;;;2.50;99.90;;;;;;5062539;28;19916;-77
2023/12/22 12:57:53;;;;;;;;;;;2.40;99.90;;;;;;5064423;28;20345;-77
2023/12/22 13:00:25;;;;;;;;;;;2.30;99.90;;;;;;5066511;28;19920;-78
2023/12/22 13:02:51;;;;;;;;;;;2.10;99.90;;;;;;5062487;28;19922;-77
2023/12/22 13:05:21;;;;;;;;;;;2.10;99.90;;;;;;5067985;28;19966;-78
2023/12/22 13:07:46;;;;;;;;;;;2.00;99.90;;;;;;5068394;28;19920;-78
2023/12/22 13:10:22;;;;;;;;;;;2.00;99.90;;;;;;5067366;28;19926;-78
2023/12/22 13:12:48;;;;;;;;;;;1.90;99.90;;;;;;5050494;28;20322;-78
2023/12/22 13:15:14;;;;;;;;;;;1.90;99.90;;;;;;5067736;28;20316;-77
2023/12/22 13:17:40;;;;;;;;;;;1.90;99.90;;;;;;5065203;28;19952;-77
2023/12/22 13:20:06;;;;;;;;;;;1.90;99.90;;;;;;5066788;28;19948;-77
2023/12/22 13:22:35;;;;;;;;;;;1.90;99.90;;;;;;5057855;28;20363;-76
2023/12/22 13:25:01;;;;;;;;;;;2.00;99.90;;;;;;5038901;28;19916;-77
2023/12/22 13:27:27;;;;;;;;;;;2.00;99.90;;;;;;5060563;28;20436;-77
2023/12/22 13:29:54;;;;;;;;;;;2.00;99.90;;;;;;5069554;28;20023;-77
2023/12/22 13:32:20;;;;;;;;;;;2.00;99.90;;;;;;5067988;28;19916;-77
2023/12/22 13:34:53;;;;;;;;;;;2.00;99.90;;;;;;5066342;28;20287;-78
2023/12/22 13:37:18;;;;;;;;;;;2.00;99.90;;;;;;5061348;28;19963;-77
2023/12/22 13:39:45;;;;;;;;;;;2.00;99.90;;;;;;5063744;28;19958;-77
2023/12/22 13:42:14;;;;;;;;;;;2.00;99.90;;;;;;5050025;28;19974;-77
2023/12/22 13:44:44;;;;;;;;;;;2.00;99.90;;;;;;5052280;28;19931;-77
2023/12/22 13:47:10;;;;;;;;;;;2.00;99.90;;;;;;5063143;28;19958;-76
2023/12/22 13:49:36;;;;;;;;;;;2.00;99.90;;;;;;5065373;28;19956;-77
2023/12/22 13:52:06;;;;;;;;;;;2.00;99.90;;;;;;5063664;28;19962;-77
2023/12/22 13:54:32;;;;;;;;;;;2.00;99.90;;;;;;5051530;28;19974;-77
2023/12/22 13:56:57;;;;;;;;;;;2.00;99.90;;;;;;5066558;28;19916;-77
2023/12/22 13:59:33;;;;;;;;;;;2.00;99.90;;;;;;5064635;28;20010;-77
2023/12/22 14:01:59;;;;;;;;;;;2.00;99.90;;;;;;5057840;28;19920;-77
2023/12/22 14:04:26;;;;;;;;;;;2.00;99.90;;;;;;5064658;28;19973;-77
2023/12/22 14:06:51;;;;;;;;;;;2.00;99.90;;;;;;5061706;28;19916;-77
2023/12/22 14:09:21;;;;;;;;;;;2.00;99.90;;;;;;5061890;28;20268;-76
2023/12/22 14:11:47;;;;;;;;;;;1.90;99.90;;;;;;5064816;28;19912;-77
2023/12/22 14:14:13;;;;;;;;;;;2.00;99.90;;;;;;5065601;28;19923;-77
2023/12/22 14:16:39;;;;;;;;;;;2.00;99.90;;;;;;5067861;28;19982;-78
2023/12/22 14:19:05;;;;;;;;;;;1.90;99.90;;;;;;5067096;28;19971;-78
2023/12/22 14:21:30;;;;;;;;;;;1.90;99.90;;;;;;5063590;28;20031;-78
2023/12/22 14:23:56;;;;;;;;;;;1.90;99.90;;;;;;5060816;28;19927;-77
2023/12/22 14:26:21;;;;;;;;;;;1.90;99.90;;;;;;5065407;28;19951;-78
2023/12/22 14:28:50;;;;;;;;;;;1.80;99.90;;;;;;5046318;28;19920;-78
2023/12/22 14:31:17;;;;;;;;;;;1.80;99.90;;;;;;5070587;28;20526;-79
2023/12/22 14:33:43;;;;;;;;;;;1.80;99.90;;;;;;5064452;28;20070;-77
2023/12/22 14:36:08;;;;;;;;;;;1.80;99.90;;;;;;5067514;28;20033;-77